sensor_id;sensor_type;location;lat;lon;timestamp;P1;durP1;ratioP1;P2;durP2;ratioP2
51298;SDS011;37382;45.192;9.790;2023-02-15T05:45:55;42.53;;;24.30;;
51298;SDS011;37382;45.192;9.790;2023-02-15T05:48:24;52.90;;;27.88;;
51298;SDS011;37382;45.192;9.790;2023-02-15T05:51:00;51.80;;;27.90;;
51298;SDS011;37382;45.192;9.790;2023-02-15T05:53:34;55.63;;;28.55;;
51298;SDS011;37382;45.192;9.790;2023-02-15T05:56:05;56.25;;;28.77;;
51298;SDS011;37382;45.192;9.790;2023-02-15T05:58:35;57.00;;;28.73;;
51298;SDS011;37382;45.192;9.790;2023-02-15T06:01:08;48.88;;;26.25;;
51298;SDS011;37382;45.192;9.790;2023-02-15T06:03:41;57.03;;;29.00;;
51298;SDS011;37382;45.192;9.790;2023-02-15T06:06:08;53.22;;;28.75;;
51298;SDS011;37382;45.192;9.790;2023-02-15T06:08:36;52.90;;;28.65;;
51298;SDS011;37382;45.192;9.790;2023-02-15T06:11:04;57.15;;;29.35;;
51298;SDS011;37382;45.192;9.790;2023-02-15T06:13:32;57.22;;;28.73;;
51298;SDS011;37382;45.192;9.790;2023-02-15T06:18:33;51.90;;;27.73;;
51298;SDS011;37382;45.192;9.790;2023-02-15T06:21:01;61.65;;;31.23;;
51298;SDS011;37382;45.192;9.790;2023-02-15T06:23:29;66.13;;;32.78;;
51298;SDS011;37382;45.192;9.790;2023-02-15T06:25:56;72.00;;;31.73;;
51298;SDS011;37382;45.192;9.790;2023-02-15T06:28:24;63.60;;;30.42;;
51298;SDS011;37382;45.192;9.790;2023-02-15T06:30:52;76.82;;;35.85;;
51298;SDS011;37382;45.192;9.790;2023-02-15T06:33:20;78.43;;;38.50;;
51298;SDS011;37382;45.192;9.790;2023-02-15T06:35:48;74.60;;;36.20;;
51298;SDS011;37382;45.192;9.790;2023-02-15T06:38:15;76.20;;;35.05;;
51298;SDS011;37382;45.192;9.790;2023-02-15T06:40:43;79.10;;;36.15;;
51298;SDS011;37382;45.192;9.790;2023-02-15T06:43:10;80.35;;;35.03;;
51298;SDS011;37382;45.192;9.790;2023-02-15T06:45:37;82.15;;;35.95;;
51298;SDS011;37382;45.192;9.790;2023-02-15T06:48:05;81.45;;;36.20;;
51298;SDS011;37382;45.192;9.790;2023-02-15T06:50:35;72.10;;;36.35;;
51298;SDS011;37382;45.192;9.790;2023-02-15T06:53:02;61.25;;;32.03;;
51298;SDS011;37382;45.192;9.790;2023-02-15T06:55:30;63.78;;;31.48;;
51298;SDS011;37382;45.192;9.790;2023-02-15T06:57:58;65.47;;;30.90;;
51298;SDS011;37382;45.192;9.790;2023-02-15T07:00:26;71.32;;;30.95;;
51298;SDS011;37382;45.192;9.790;2023-02-15T07:02:54;65.10;;;32.63;;
51298;SDS011;37382;45.192;9.790;2023-02-15T07:05:25;64.72;;;32.55;;
51298;SDS011;37382;45.192;9.790;2023-02-15T07:07:58;69.03;;;32.45;;
51298;SDS011;37382;45.192;9.790;2023-02-15T07:10:27;82.53;;;33.05;;
51298;SDS011;37382;45.192;9.790;2023-02-15T07:12:55;134.40;;;43.08;;
51298;SDS011;37382;45.192;9.790;2023-02-15T07:15:22;145.68;;;45.17;;
51298;SDS011;37382;45.192;9.790;2023-02-15T07:17:50;81.35;;;36.72;;
51298;SDS011;37382;45.192;9.790;2023-02-15T07:20:20;73.03;;;33.42;;
51298;SDS011;37382;45.192;9.790;2023-02-15T07:22:49;95.68;;;43.58;;
51298;SDS011;37382;45.192;9.790;2023-02-15T07:25:17;96.90;;;42.08;;
51298;SDS011;37382;45.192;9.790;2023-02-15T07:27:45;96.82;;;44.08;;
51298;SDS011;37382;45.192;9.790;2023-02-15T07:30:14;104.60;;;44.72;;
51298;SDS011;37382;45.192;9.790;2023-02-15T07:32:44;108.60;;;47.03;;
51298;SDS011;37382;45.192;9.790;2023-02-15T07:35:32;106.32;;;50.30;;
51298;SDS011;37382;45.192;9.790;2023-02-15T07:38:00;98.32;;;47.10;;
51298;SDS011;37382;45.192;9.790;2023-02-15T07:40:28;100.43;;;47.45;;
51298;SDS011;37382;45.192;9.790;2023-02-15T07:42:57;99.93;;;47.25;;
51298;SDS011;37382;45.192;9.790;2023-02-15T07:45:26;107.93;;;47.92;;
51298;SDS011;37382;45.192;9.790;2023-02-15T07:47:54;102.75;;;48.97;;
51298;SDS011;37382;45.192;9.790;2023-02-15T07:50:21;91.38;;;46.35;;
51298;SDS011;37382;45.192;9.790;2023-02-15T07:52:49;94.43;;;46.47;;
51298;SDS011;37382;45.192;9.790;2023-02-15T07:55:16;104.55;;;47.60;;
51298;SDS011;37382;45.192;9.790;2023-02-15T07:57:44;104.45;;;47.97;;
51298;SDS011;37382;45.192;9.790;2023-02-15T08:00:13;90.00;;;45.17;;
51298;SDS011;37382;45.192;9.790;2023-02-15T08:02:42;92.45;;;47.95;;
51298;SDS011;37382;45.192;9.790;2023-02-15T08:05:16;105.32;;;51.03;;
51298;SDS011;37382;45.192;9.790;2023-02-15T08:07:45;102.70;;;50.22;;
51298;SDS011;37382;45.192;9.790;2023-02-15T08:10:12;102.30;;;50.22;;
51298;SDS011;37382;45.192;9.790;2023-02-15T08:13:00;104.78;;;50.17;;
51298;SDS011;37382;45.192;9.790;2023-02-15T08:15:27;118.40;;;52.47;;
51298;SDS011;37382;45.192;9.790;2023-02-15T08:17:55;109.35;;;53.47;;
51298;SDS011;37382;45.192;9.790;2023-02-15T08:20:22;112.55;;;54.83;;
51298;SDS011;37382;45.192;9.790;2023-02-15T08:22:49;123.03;;;58.47;;
51298;SDS011;37382;45.192;9.790;2023-02-15T08:25:17;114.43;;;58.47;;
51298;SDS011;37382;45.192;9.790;2023-02-15T08:27:44;113.80;;;57.22;;
51298;SDS011;37382;45.192;9.790;2023-02-15T08:30:12;115.35;;;56.88;;
51298;SDS011;37382;45.192;9.790;2023-02-15T08:32:41;120.25;;;57.80;;
51298;SDS011;37382;45.192;9.790;2023-02-15T08:35:08;124.60;;;60.63;;
51298;SDS011;37382;45.192;9.790;2023-02-15T08:37:36;115.90;;;60.67;;
51298;SDS011;37382;45.192;9.790;2023-02-15T08:40:04;127.05;;;61.65;;
51298;SDS011;37382;45.192;9.790;2023-02-15T08:42:32;118.43;;;60.03;;
51298;SDS011;37382;45.192;9.790;2023-02-15T08:45:00;131.75;;;63.78;;
51298;SDS011;37382;45.192;9.790;2023-02-15T08:47:28;127.90;;;64.43;;
51298;SDS011;37382;45.192;9.790;2023-02-15T08:49:56;137.75;;;70.00;;
51298;SDS011;37382;45.192;9.790;2023-02-15T08:52:23;138.45;;;67.47;;
51298;SDS011;37382;45.192;9.790;2023-02-15T08:54:51;137.57;;;67.28;;
51298;SDS011;37382;45.192;9.790;2023-02-15T08:57:18;142.63;;;69.88;;
51298;SDS011;37382;45.192;9.790;2023-02-15T08:59:45;137.00;;;67.63;;
51298;SDS011;37382;45.192;9.790;2023-02-15T09:02:13;149.25;;;73.13;;
51298;SDS011;37382;45.192;9.790;2023-02-15T09:04:41;152.55;;;74.38;;
51298;SDS011;37382;45.192;9.790;2023-02-15T09:07:08;141.40;;;72.18;;
51298;SDS011;37382;45.192;9.790;2023-02-15T09:09:36;139.90;;;68.95;;
51298;SDS011;37382;45.192;9.790;2023-02-15T09:12:03;137.40;;;68.88;;
51298;SDS011;37382;45.192;9.790;2023-02-15T09:14:31;132.88;;;68.18;;
51298;SDS011;37382;45.192;9.790;2023-02-15T09:16:58;131.38;;;67.38;;
51298;SDS011;37382;45.192;9.790;2023-02-15T09:19:25;120.88;;;65.55;;
51298;SDS011;37382;45.192;9.790;2023-02-15T09:21:53;126.40;;;66.68;;
51298;SDS011;37382;45.192;9.790;2023-02-15T09:24:21;119.05;;;64.78;;
51298;SDS011;37382;45.192;9.790;2023-02-15T09:26:48;118.70;;;60.97;;
51298;SDS011;37382;45.192;9.790;2023-02-15T09:29:17;116.60;;;61.17;;
51298;SDS011;37382;45.192;9.790;2023-02-15T09:31:46;118.18;;;61.08;;
51298;SDS011;37382;45.192;9.790;2023-02-15T09:34:18;114.28;;;59.80;;
51298;SDS011;37382;45.192;9.790;2023-02-15T09:36:47;112.75;;;58.42;;
51298;SDS011;37382;45.192;9.790;2023-02-15T09:39:16;99.97;;;55.60;;
51298;SDS011;37382;45.192;9.790;2023-02-15T09:56:09;109.03;;;54.78;;
51298;SDS011;37382;45.192;9.790;2023-02-15T09:59:25;94.28;;;55.15;;
51298;SDS011;37382;45.192;9.790;2023-02-15T10:02:52;96.72;;;54.83;;
51298;SDS011;37382;45.192;9.790;2023-02-15T10:05:15;101.55;;;54.85;;
51298;SDS011;37382;45.192;9.790;2023-02-15T10:08:10;107.82;;;58.20;;
51298;SDS011;37382;45.192;9.790;2023-02-15T10:13:58;104.03;;;55.53;;
51298;SDS011;37382;45.192;9.790;2023-02-15T10:19:17;98.88;;;54.90;;
51298;SDS011;37382;45.192;9.790;2023-02-15T10:22:09;98.13;;;50.60;;
51298;SDS011;37382;45.192;9.790;2023-02-15T10:27:28;97.78;;;54.20;;
51298;SDS011;37382;45.192;9.790;2023-02-15T10:32:28;94.40;;;50.47;;
51298;SDS011;37382;45.192;9.790;2023-02-15T10:35:10;96.38;;;49.85;;
51298;SDS011;37382;45.192;9.790;2023-02-15T10:47:00;98.00;;;51.72;;
51298;SDS011;37382;45.192;9.790;2023-02-15T10:49:58;93.90;;;49.58;;
51298;SDS011;37382;45.192;9.790;2023-02-15T11:06:30;92.30;;;47.90;;
51298;SDS011;37382;45.192;9.790;2023-02-15T11:09:04;90.28;;;46.25;;
51298;SDS011;37382;45.192;9.790;2023-02-15T11:11:37;92.75;;;46.55;;
51298;SDS011;37382;45.192;9.790;2023-02-15T11:14:14;81.60;;;44.17;;
51298;SDS011;37382;45.192;9.790;2023-02-15T11:16:57;99.45;;;49.17;;
51298;SDS011;37382;45.192;9.790;2023-02-15T11:19:35;92.72;;;47.70;;
51298;SDS011;37382;45.192;9.790;2023-02-15T11:22:09;91.72;;;47.45;;
51298;SDS011;37382;45.192;9.790;2023-02-15T11:24:41;92.63;;;47.42;;
51298;SDS011;37382;45.192;9.790;2023-02-15T11:27:27;91.68;;;45.97;;
51298;SDS011;37382;45.192;9.790;2023-02-15T11:30:04;94.77;;;46.87;;
51298;SDS011;37382;45.192;9.790;2023-02-15T11:32:40;97.25;;;50.75;;
51298;SDS011;37382;45.192;9.790;2023-02-15T11:35:18;98.93;;;47.63;;
51298;SDS011;37382;45.192;9.790;2023-02-15T11:41:01;92.03;;;46.92;;
51298;SDS011;37382;45.192;9.790;2023-02-15T11:44:16;98.88;;;49.10;;
51298;SDS011;37382;45.192;9.790;2023-02-15T11:46:25;93.22;;;49.17;;
51298;SDS011;37382;45.192;9.790;2023-02-15T11:48:52;97.78;;;50.53;;
51298;SDS011;37382;45.192;9.790;2023-02-15T11:51:21;94.57;;;49.92;;
51298;SDS011;37382;45.192;9.790;2023-02-15T11:53:50;93.78;;;48.22;;
51298;SDS011;37382;45.192;9.790;2023-02-15T11:56:20;101.75;;;50.70;;
51298;SDS011;37382;45.192;9.790;2023-02-15T11:58:59;104.28;;;50.50;;
51298;SDS011;37382;45.192;9.790;2023-02-15T12:06:35;105.70;;;50.75;;
51298;SDS011;37382;45.192;9.790;2023-02-15T12:09:20;93.10;;;47.40;;
51298;SDS011;37382;45.192;9.790;2023-02-15T12:14:52;95.43;;;48.47;;
51298;SDS011;37382;45.192;9.790;2023-02-15T12:17:21;105.00;;;53.00;;
51298;SDS011;37382;45.192;9.790;2023-02-15T12:19:53;106.90;;;51.40;;
51298;SDS011;37382;45.192;9.790;2023-02-15T12:22:26;106.55;;;51.00;;
51298;SDS011;37382;45.192;9.790;2023-02-15T12:25:00;104.90;;;52.33;;
51298;SDS011;37382;45.192;9.790;2023-02-15T12:27:30;106.53;;;47.83;;
51298;SDS011;37382;45.192;9.790;2023-02-15T12:30:04;101.90;;;49.95;;
51298;SDS011;37382;45.192;9.790;2023-02-15T12:35:29;107.78;;;49.85;;
51298;SDS011;37382;45.192;9.790;2023-02-15T12:38:09;104.97;;;49.38;;
51298;SDS011;37382;45.192;9.790;2023-02-15T12:41:00;103.13;;;49.47;;
51298;SDS011;37382;45.192;9.790;2023-02-15T12:43:34;102.72;;;50.60;;
51298;SDS011;37382;45.192;9.790;2023-02-15T12:46:26;102.13;;;48.53;;
51298;SDS011;37382;45.192;9.790;2023-02-15T12:51:43;99.78;;;51.35;;
51298;SDS011;37382;45.192;9.790;2023-02-15T12:59:58;107.32;;;50.58;;
51298;SDS011;37382;45.192;9.790;2023-02-15T13:05:03;97.80;;;48.70;;
51298;SDS011;37382;45.192;9.790;2023-02-15T13:07:35;97.85;;;47.08;;
51298;SDS011;37382;45.192;9.790;2023-02-15T13:10:04;109.13;;;49.42;;
51298;SDS011;37382;45.192;9.790;2023-02-15T13:12:46;100.65;;;47.35;;
51298;SDS011;37382;45.192;9.790;2023-02-15T13:15:24;95.32;;;46.38;;
51298;SDS011;37382;45.192;9.790;2023-02-15T13:17:58;94.40;;;45.53;;
51298;SDS011;37382;45.192;9.790;2023-02-15T13:20:27;89.75;;;46.08;;
51298;SDS011;37382;45.192;9.790;2023-02-15T13:23:00;98.18;;;45.67;;
51298;SDS011;37382;45.192;9.790;2023-02-15T13:25:44;103.25;;;47.55;;
51298;SDS011;37382;45.192;9.790;2023-02-15T13:28:17;98.53;;;46.03;;
51298;SDS011;37382;45.192;9.790;2023-02-15T13:30:49;100.90;;;48.28;;
51298;SDS011;37382;45.192;9.790;2023-02-15T13:33:25;90.25;;;46.85;;
51298;SDS011;37382;45.192;9.790;2023-02-15T13:36:02;92.15;;;46.30;;
51298;SDS011;37382;45.192;9.790;2023-02-15T13:41:12;102.07;;;45.70;;
51298;SDS011;37382;45.192;9.790;2023-02-15T13:43:50;91.03;;;42.58;;
51298;SDS011;37382;45.192;9.790;2023-02-15T13:49:28;89.57;;;41.88;;
51298;SDS011;37382;45.192;9.790;2023-02-15T13:57:45;91.22;;;45.35;;
51298;SDS011;37382;45.192;9.790;2023-02-15T14:17:12;82.50;;;46.40;;
51298;SDS011;37382;45.192;9.790;2023-02-15T14:22:36;86.47;;;49.42;;
51298;SDS011;37382;45.192;9.790;2023-02-15T14:25:13;87.95;;;48.88;;
51298;SDS011;37382;45.192;9.790;2023-02-15T14:27:59;101.57;;;49.88;;
51298;SDS011;37382;45.192;9.790;2023-02-15T14:30:49;85.55;;;47.22;;
51298;SDS011;37382;45.192;9.790;2023-02-15T14:36:01;87.88;;;45.65;;
51298;SDS011;37382;45.192;9.790;2023-02-15T14:41:22;82.72;;;46.88;;
51298;SDS011;37382;45.192;9.790;2023-02-15T14:46:48;89.53;;;47.55;;
51298;SDS011;37382;45.192;9.790;2023-02-15T14:49:25;97.43;;;49.95;;
51298;SDS011;37382;45.192;9.790;2023-02-15T14:51:56;90.32;;;47.30;;
51298;SDS011;37382;45.192;9.790;2023-02-15T15:02:18;89.10;;;44.75;;
51298;SDS011;37382;45.192;9.790;2023-02-15T15:12:50;93.70;;;44.10;;
51298;SDS011;37382;45.192;9.790;2023-02-15T15:25:44;92.55;;;46.45;;
51298;SDS011;37382;45.192;9.790;2023-02-15T15:36:40;80.80;;;39.85;;
51298;SDS011;37382;45.192;9.790;2023-02-15T15:51:00;88.60;;;41.85;;
51298;SDS011;37382;45.192;9.790;2023-02-15T15:53:34;86.85;;;41.40;;
51298;SDS011;37382;45.192;9.790;2023-02-15T15:56:11;88.47;;;42.38;;
51298;SDS011;37382;45.192;9.790;2023-02-15T15:58:45;95.45;;;42.97;;
51298;SDS011;37382;45.192;9.790;2023-02-15T16:01:21;84.15;;;40.90;;
51298;SDS011;37382;45.192;9.790;2023-02-15T16:03:54;89.40;;;42.10;;
51298;SDS011;37382;45.192;9.790;2023-02-15T16:06:30;100.73;;;46.33;;
51298;SDS011;37382;45.192;9.790;2023-02-15T16:11:41;92.25;;;46.78;;
51298;SDS011;37382;45.192;9.790;2023-02-15T16:14:13;107.63;;;47.97;;
51298;SDS011;37382;45.192;9.790;2023-02-15T16:16:48;94.15;;;45.97;;
51298;SDS011;37382;45.192;9.790;2023-02-15T16:19:20;106.43;;;46.63;;
51298;SDS011;37382;45.192;9.790;2023-02-15T16:21:51;98.63;;;45.53;;
51298;SDS011;37382;45.192;9.790;2023-02-15T16:29:36;97.65;;;48.40;;
51298;SDS011;37382;45.192;9.790;2023-02-15T16:32:05;116.53;;;53.78;;
51298;SDS011;37382;45.192;9.790;2023-02-15T16:34:55;113.03;;;53.88;;
51298;SDS011;37382;45.192;9.790;2023-02-15T16:37:28;128.32;;;57.90;;
51298;SDS011;37382;45.192;9.790;2023-02-15T16:39:59;142.38;;;61.47;;
51298;SDS011;37382;45.192;9.790;2023-02-15T16:42:27;126.75;;;57.25;;
51298;SDS011;37382;45.192;9.790;2023-02-15T16:44:56;123.55;;;56.45;;
51298;SDS011;37382;45.192;9.790;2023-02-15T16:47:36;101.38;;;49.88;;
51298;SDS011;37382;45.192;9.790;2023-02-15T16:50:16;106.50;;;51.15;;
51298;SDS011;37382;45.192;9.790;2023-02-15T16:52:46;107.55;;;49.90;;
51298;SDS011;37382;45.192;9.790;2023-02-15T16:55:21;105.38;;;50.03;;
51298;SDS011;37382;45.192;9.790;2023-02-15T16:57:56;103.95;;;49.88;;
51298;SDS011;37382;45.192;9.790;2023-02-15T17:00:30;100.60;;;48.63;;
51298;SDS011;37382;45.192;9.790;2023-02-15T17:05:48;106.32;;;50.00;;
51298;SDS011;37382;45.192;9.790;2023-02-15T17:08:27;103.20;;;49.55;;
51298;SDS011;37382;45.192;9.790;2023-02-15T17:13:26;97.95;;;48.00;;
51298;SDS011;37382;45.192;9.790;2023-02-15T17:18:38;108.68;;;52.33;;
51298;SDS011;37382;45.192;9.790;2023-02-15T17:21:18;117.78;;;53.40;;
51298;SDS011;37382;45.192;9.790;2023-02-15T17:23:51;118.25;;;50.35;;
51298;SDS011;37382;45.192;9.790;2023-02-15T17:26:27;114.28;;;51.42;;
51298;SDS011;37382;45.192;9.790;2023-02-15T17:28:59;110.97;;;50.08;;
51298;SDS011;37382;45.192;9.790;2023-02-15T17:31:30;104.55;;;51.28;;
51298;SDS011;37382;45.192;9.790;2023-02-15T17:34:00;108.50;;;49.80;;
51298;SDS011;37382;45.192;9.790;2023-02-15T17:36:29;111.18;;;48.85;;
51298;SDS011;37382;45.192;9.790;2023-02-15T17:41:26;104.78;;;48.35;;
51298;SDS011;37382;45.192;9.790;2023-02-15T17:43:55;105.85;;;48.65;;
51298;SDS011;37382;45.192;9.790;2023-02-15T17:46:23;122.47;;;48.45;;
51298;SDS011;37382;45.192;9.790;2023-02-15T17:48:52;116.13;;;48.70;;
51298;SDS011;37382;45.192;9.790;2023-02-15T17:51:22;105.10;;;48.47;;
51298;SDS011;37382;45.192;9.790;2023-02-15T17:53:51;118.60;;;50.30;;
51298;SDS011;37382;45.192;9.790;2023-02-15T17:56:37;114.25;;;49.72;;
51298;SDS011;37382;45.192;9.790;2023-02-15T17:59:05;132.38;;;53.30;;
51298;SDS011;37382;45.192;9.790;2023-02-15T18:01:43;127.28;;;53.70;;
51298;SDS011;37382;45.192;9.790;2023-02-15T18:04:31;119.57;;;52.13;;
51298;SDS011;37382;45.192;9.790;2023-02-15T18:07:21;118.72;;;52.20;;
51298;SDS011;37382;45.192;9.790;2023-02-15T18:10:12;129.65;;;53.40;;
51298;SDS011;37382;45.192;9.790;2023-02-15T18:13:00;131.38;;;52.40;;
51298;SDS011;37382;45.192;9.790;2023-02-15T18:15:27;117.28;;;53.45;;
51298;SDS011;37382;45.192;9.790;2023-02-15T18:17:55;115.45;;;52.90;;
51298;SDS011;37382;45.192;9.790;2023-02-15T18:20:24;122.93;;;53.38;;
51298;SDS011;37382;45.192;9.790;2023-02-15T18:23:00;132.48;;;51.05;;
51298;SDS011;37382;45.192;9.790;2023-02-15T18:25:28;123.68;;;51.38;;
51298;SDS011;37382;45.192;9.790;2023-02-15T18:27:56;108.57;;;50.10;;
51298;SDS011;37382;45.192;9.790;2023-02-15T18:30:23;125.53;;;53.03;;
51298;SDS011;37382;45.192;9.790;2023-02-15T18:32:53;118.40;;;53.03;;
51298;SDS011;37382;45.192;9.790;2023-02-15T18:35:23;117.35;;;53.00;;
51298;SDS011;37382;45.192;9.790;2023-02-15T18:37:54;137.32;;;50.72;;
51298;SDS011;37382;45.192;9.790;2023-02-15T18:40:26;108.32;;;48.45;;
51298;SDS011;37382;45.192;9.790;2023-02-15T18:42:54;118.80;;;48.80;;
51298;SDS011;37382;45.192;9.790;2023-02-15T18:45:27;114.07;;;49.72;;
51298;SDS011;37382;45.192;9.790;2023-02-15T18:47:59;120.80;;;50.88;;
51298;SDS011;37382;45.192;9.790;2023-02-15T18:50:28;124.68;;;56.50;;
51298;SDS011;37382;45.192;9.790;2023-02-15T18:52:59;117.25;;;54.85;;
51298;SDS011;37382;45.192;9.790;2023-02-15T18:55:29;120.35;;;52.88;;
51298;SDS011;37382;45.192;9.790;2023-02-15T18:58:01;124.07;;;55.92;;
51298;SDS011;37382;45.192;9.790;2023-02-15T19:00:30;120.47;;;47.63;;
51298;SDS011;37382;45.192;9.790;2023-02-15T19:03:00;116.97;;;48.90;;
51298;SDS011;37382;45.192;9.790;2023-02-15T19:05:29;118.70;;;50.65;;
51298;SDS011;37382;45.192;9.790;2023-02-15T19:07:58;118.28;;;50.60;;
51298;SDS011;37382;45.192;9.790;2023-02-15T19:10:28;119.75;;;52.00;;
51298;SDS011;37382;45.192;9.790;2023-02-15T19:12:57;122.03;;;54.05;;
51298;SDS011;37382;45.192;9.790;2023-02-15T19:15:26;116.32;;;50.00;;
51298;SDS011;37382;45.192;9.790;2023-02-15T19:17:57;126.20;;;51.00;;
51298;SDS011;37382;45.192;9.790;2023-02-15T19:20:26;106.03;;;48.13;;
51298;SDS011;37382;45.192;9.790;2023-02-15T19:22:57;119.18;;;51.85;;
51298;SDS011;37382;45.192;9.790;2023-02-15T19:25:28;126.63;;;55.22;;
51298;SDS011;37382;45.192;9.790;2023-02-15T19:27:57;117.28;;;53.75;;
51298;SDS011;37382;45.192;9.790;2023-02-15T19:30:26;122.80;;;50.05;;
51298;SDS011;37382;45.192;9.790;2023-02-15T19:32:56;125.72;;;52.80;;
51298;SDS011;37382;45.192;9.790;2023-02-15T19:35:26;109.68;;;53.58;;
51298;SDS011;37382;45.192;9.790;2023-02-15T19:37:59;118.80;;;54.17;;
51298;SDS011;37382;45.192;9.790;2023-02-15T19:40:33;119.15;;;49.60;;
51298;SDS011;37382;45.192;9.790;2023-02-15T19:43:02;113.28;;;49.10;;
51298;SDS011;37382;45.192;9.790;2023-02-15T19:45:31;106.15;;;48.80;;
51298;SDS011;37382;45.192;9.790;2023-02-15T19:48:02;103.30;;;48.78;;
51298;SDS011;37382;45.192;9.790;2023-02-15T19:50:32;108.95;;;46.90;;
51298;SDS011;37382;45.192;9.790;2023-02-15T19:53:01;114.43;;;50.05;;
51298;SDS011;37382;45.192;9.790;2023-02-15T19:55:30;108.80;;;49.08;;
51298;SDS011;37382;45.192;9.790;2023-02-15T19:58:00;109.57;;;48.15;;
51298;SDS011;37382;45.192;9.790;2023-02-15T20:00:29;112.22;;;49.67;;
51298;SDS011;37382;45.192;9.790;2023-02-15T20:02:59;120.88;;;51.20;;
51298;SDS011;37382;45.192;9.790;2023-02-15T20:05:28;119.28;;;54.35;;
51298;SDS011;37382;45.192;9.790;2023-02-15T20:07:57;120.70;;;50.40;;
51298;SDS011;37382;45.192;9.790;2023-02-15T20:10:28;115.50;;;51.50;;
51298;SDS011;37382;45.192;9.790;2023-02-15T20:12:57;124.47;;;53.08;;
51298;SDS011;37382;45.192;9.790;2023-02-15T20:15:26;113.97;;;51.80;;
51298;SDS011;37382;45.192;9.790;2023-02-15T20:17:57;115.55;;;51.50;;
51298;SDS011;37382;45.192;9.790;2023-02-15T20:20:27;110.57;;;49.20;;
51298;SDS011;37382;45.192;9.790;2023-02-15T20:23:00;101.03;;;46.53;;
51298;SDS011;37382;45.192;9.790;2023-02-15T20:25:28;106.60;;;46.03;;
51298;SDS011;37382;45.192;9.790;2023-02-15T20:27:57;110.60;;;48.03;;
51298;SDS011;37382;45.192;9.790;2023-02-15T20:30:26;98.70;;;45.13;;
51298;SDS011;37382;45.192;9.790;2023-02-15T20:32:56;93.20;;;43.22;;
51298;SDS011;37382;45.192;9.790;2023-02-15T20:35:24;96.05;;;42.05;;
51298;SDS011;37382;45.192;9.790;2023-02-15T20:37:57;98.03;;;45.30;;
51298;SDS011;37382;45.192;9.790;2023-02-15T20:40:30;113.30;;;46.55;;
51298;SDS011;37382;45.192;9.790;2023-02-15T20:43:00;103.82;;;43.85;;
51298;SDS011;37382;45.192;9.790;2023-02-15T20:45:35;99.07;;;43.83;;
51298;SDS011;37382;45.192;9.790;2023-02-15T20:48:02;105.53;;;45.47;;
51298;SDS011;37382;45.192;9.790;2023-02-15T20:50:31;112.90;;;48.25;;
51298;SDS011;37382;45.192;9.790;2023-02-15T20:52:59;108.70;;;46.95;;
51298;SDS011;37382;45.192;9.790;2023-02-15T20:55:29;108.72;;;48.60;;
51298;SDS011;37382;45.192;9.790;2023-02-15T20:57:58;114.82;;;50.88;;
51298;SDS011;37382;45.192;9.790;2023-02-15T21:00:26;118.53;;;52.38;;
51298;SDS011;37382;45.192;9.790;2023-02-15T21:05:27;109.72;;;49.78;;
51298;SDS011;37382;45.192;9.790;2023-02-15T21:07:57;116.70;;;50.73;;
51298;SDS011;37382;45.192;9.790;2023-02-15T21:10:27;120.47;;;52.38;;
51298;SDS011;37382;45.192;9.790;2023-02-15T21:12:57;115.25;;;51.45;;
51298;SDS011;37382;45.192;9.790;2023-02-15T21:17:55;101.60;;;47.72;;
51298;SDS011;37382;45.192;9.790;2023-02-15T21:20:24;109.47;;;48.63;;
51298;SDS011;37382;45.192;9.790;2023-02-15T21:22:53;119.32;;;48.78;;
51298;SDS011;37382;45.192;9.790;2023-02-15T21:25:33;111.95;;;49.03;;
51298;SDS011;37382;45.192;9.790;2023-02-15T21:28:03;109.25;;;46.80;;
51298;SDS011;37382;45.192;9.790;2023-02-15T21:30:31;103.43;;;45.15;;
51298;SDS011;37382;45.192;9.790;2023-02-15T21:32:59;113.82;;;46.28;;
51298;SDS011;37382;45.192;9.790;2023-02-15T21:35:27;114.18;;;48.25;;
51298;SDS011;37382;45.192;9.790;2023-02-15T21:37:54;119.03;;;49.38;;
51298;SDS011;37382;45.192;9.790;2023-02-15T21:40:25;107.45;;;47.17;;
51298;SDS011;37382;45.192;9.790;2023-02-15T21:42:55;108.68;;;47.28;;
51298;SDS011;37382;45.192;9.790;2023-02-15T21:45:42;105.40;;;47.70;;
51298;SDS011;37382;45.192;9.790;2023-02-15T21:48:28;115.07;;;49.53;;
51298;SDS011;37382;45.192;9.790;2023-02-15T21:50:55;117.15;;;50.90;;
51298;SDS011;37382;45.192;9.790;2023-02-15T21:53:42;120.32;;;49.65;;
51298;SDS011;37382;45.192;9.790;2023-02-15T21:56:13;117.70;;;51.75;;
51298;SDS011;37382;45.192;9.790;2023-02-15T21:58:43;119.10;;;51.50;;
51298;SDS011;37382;45.192;9.790;2023-02-15T22:01:16;112.45;;;50.70;;
51298;SDS011;37382;45.192;9.790;2023-02-15T22:03:48;115.97;;;52.95;;
51298;SDS011;37382;45.192;9.790;2023-02-15T22:06:16;139.48;;;56.28;;
51298;SDS011;37382;45.192;9.790;2023-02-15T22:08:44;114.75;;;52.10;;
51298;SDS011;37382;45.192;9.790;2023-02-15T22:11:15;122.65;;;53.10;;
51298;SDS011;37382;45.192;9.790;2023-02-15T22:13:45;118.05;;;51.80;;
51298;SDS011;37382;45.192;9.790;2023-02-15T22:16:20;122.72;;;54.90;;
51298;SDS011;37382;45.192;9.790;2023-02-15T22:18:48;107.88;;;50.17;;
51298;SDS011;37382;45.192;9.790;2023-02-15T22:21:16;121.63;;;50.70;;
51298;SDS011;37382;45.192;9.790;2023-02-15T22:23:45;111.18;;;48.75;;
